• Join FlightAware (Why Join?)
  • Login
  • US Flag 
03:19AM EDT


 

Airport Tracker/Info


-or-


 

Live Flight TrackerFlight Track Log ✈ LBQ652 ✈ 15-Jun-2013 ✈ KLUK - KPTK

Flight Track Log - Related Links

Times and Time Zones

All times are in EDT time to prevent confusion due to time zone crossing. See the LBQ652 flight status page for this flight to view local times or setup timezone preferences in your user account.

Time Position Orientation Groundspeed Altitude Reporting Facility
EDT Latitude Longitude Course Direction KTS MPH feet Rate Location/Type
01:40AM 39.1333 -84.4000 360° North 162 186 2,000  Level Cincinnati TRACON
01:41AM 39.1833 -84.3833 14° North 244 281 3,600 1,680 Climbing Cincinnati TRACON
01:42AM 39.2575 -84.3603 14° North 242 278 5,600 1,920 Climbing Indianapolis Center
01:43AM 39.3306 -84.3417 11° North 259 298 7,700 1,860 Climbing Indianapolis Center
01:44AM 39.4050 -84.3222 11° North 267 307 9,400 1,500 Climbing Indianapolis Center
01:45AM 39.4808 -84.3017 12° North 273 314 10,800 1,380 Climbing Indianapolis Center
01:46AM 39.5617 -84.2800 12° North 289 333 12,300 1,500 Climbing Indianapolis Center
01:47AM 39.6419 -84.2600 11° North 292 336 13,900 1,380 Climbing Indianapolis Center
01:48AM 39.7219 -84.2383 12° North 289 333 15,100 1,200 Climbing Indianapolis Center
01:49AM 39.8056 -84.2158 12° North 299 344 16,300 1,140 Climbing Indianapolis Center
01:50AM 39.8883 -84.1936 12° North 300 345 17,500 960 Climbing Indianapolis Center
01:51AM 39.9728 -84.1708 12° North 305 351 18,300 780 Climbing Indianapolis Center
01:52AM 40.0461 -84.1525 11° North 315 362 19,100 900 Climbing Indianapolis Center
01:53AM 40.1328 -84.1289 12° North 314 361 20,200 1,080 Climbing Indianapolis Center
01:54AM 40.2206 -84.1039 12° North 318 366 21,300 1,140 Climbing Indianapolis Center
01:55AM 40.3064 -84.0817 11° North 311 358 22,500 1,080 Climbing Indianapolis Center
01:56AM 40.3894 -84.0594 12° North 303 349 23,500 900 Climbing Indianapolis Center
01:57AM 40.4744 -84.0369 11° North 305 351 24,400 900 Climbing Indianapolis Center
01:58AM 40.5572 -84.0136 12° North 302 348 25,400 1,020 Climbing Indianapolis Center
01:59AM 40.6400 -83.9908 12° North 302 348 26,500 780 Climbing Indianapolis Center
02:00AM 40.7222 -83.9686 12° North 298 343 27,000 240 Climbing Indianapolis Center
02:01AM 40.8103 -83.9444 12° North 318 366 27,000  Level Indianapolis Center
02:02AM 40.9000 -83.9197 12° North 327 376 27,000  Level Indianapolis Center
02:03AM 40.9917 -83.8942 12° North 331 381 27,000  Level Indianapolis Center
02:04AM 41.0750 -83.8703 12° North 332 382 27,000  Level Indianapolis Center
02:05AM 41.1314 -83.8556 11° North 328 377 27,000  Level Cleveland Center
02:06AM 41.2239 -83.8300 12° North 328 377 27,000  Level Cleveland Center
02:07AM 41.3142 -83.8067 11° North 328 377 27,000  Level Cleveland Center
02:08AM 41.4047 -83.7781 13° North 333 383 27,000 -300 Level Cleveland Center
02:09AM 41.4969 -83.7547 11° North 333 383 26,500 -780 Descending Cleveland Center
02:09AM 41.5517 -83.7408 11° North 351 404 25,900 -1,020 Descending Cleveland Center
02:10AM 41.5956 -83.7292 11° North 346 398 25,500 -1,020 Descending Cleveland Center
02:11AM 41.6608 -83.7072 14° North 362 417 24,800 -1,020 Descending Cleveland Center
02:11AM 41.6925 -83.6978 13° North 352 405 24,500 -1,500 Descending Cleveland Center
02:12AM 41.7575 -83.6842 North 349 402 23,300 -2,100 Descending Cleveland Center
02:12AM 41.7892 -83.6717 16° North 352 405 22,400 -3,000 Descending Cleveland Center
02:13AM 41.8542 -83.6553 11° North 348 400 20,300 -2,940 Descending Cleveland Center
02:13AM 41.8814 -83.6456 15° North 347 399 19,500 -2,700 Descending Cleveland Center
02:14AM 41.9464 -83.6319 North 340 391 17,600 -2,820 Descending Cleveland Center
02:14AM 41.9719 -83.6192 20° North 342 394 16,700 -2,700 Descending Cleveland Center
02:15AM 42.0369 -83.6028 11° North 330 380 14,900 -2,700 Descending Cleveland Center
02:15AM 42.0622 -83.5928 16° North 336 387 14,000 -2,040 Descending Cleveland Center
02:16AM 42.1250 -83.5789 North 314 361 12,900 -2,100 Descending Cleveland Center
02:16AM 42.1461 -83.5714 15° North 324 373 11,900 -3,000 Descending Cleveland Center
02:17AM 42.2069 -83.5547 11° North 295 339 9,900 -3,120 Descending Cleveland Center
02:17AM 42.2281 -83.5472 15° North 303 349 8,800 -2,820 Descending Cleveland Center
02:18AM 42.2806 -83.5328 12° North 270 311 7,100 -2,220 Descending Cleveland Center
02:18AM 42.2953 -83.5278 14° North 283 326 6,600 -2,280 Descending Cleveland Center
02:19AM 42.3583 -83.5111 11° North 258 297 4,800 -2,520 Descending Cleveland Center
02:19AM 42.3794 -83.5036 15° North 258 297 4,100 -1,680 Descending Cleveland Center
02:20AM 42.4297 -83.4892 12° North 261 300 3,100 -660 Descending Cleveland Center
02:21AM 42.4908 -83.4639 17° North 228 262 3,100  Level Cleveland Center
02:22AM 42.5481 -83.4269 25° Northeast 212 244 3,100  Level Cleveland Center
02:23AM 42.5986 -83.4011 21° North 195 224 3,100 -480 Level Cleveland Center
02:24AM 42.6389 -83.3775 23° Northeast 123 142 2,200 -900 Descending Cleveland Center
02:26AM 42.6500 -83.4167 North  Level FlightAware Approximate